Terminal Aerodrome Forecast
Issued by NWS Denver/Boulder, CO

Home | Current Version | Previous Version | Text Only | Print | Product List | Glossary On
Versions: 1 2 3 4 5 6 7 8 9 10 11 12 13 14 15 16 17 18 19 20 21 22 23 24 25 26 27 28 29 30 31 32 33 34 35 36 37 38 39 40 41 42 43 44 45 46 47 48 49 50
000
FTUS45 KBOU 052142 AAB
TAFDEN
TAF AMD
KDEN 052142Z 0522/0624 27015G25KT P6SM FEW100 SCT200
     FM052200 35018G30KT P6SM FEW090 SCT200
     FM060200 01014G22KT P6SM SCT080 BKN120
     FM060600 04012KT P6SM SCT070 BKN110
     FM060900 09007KT P6SM SCT060 BKN100
     FM061800 12012KT P6SM SCT050 BKN100
     FM062300 10012KT P6SM OVC050=

USA.gov is the U.S. government's official web portal to all federal, state and local government web resources and services.